createdAt,value
2023-03-05T00:00:13.167Z,8.41
2023-03-05T00:01:22.873Z,8.32
2023-03-05T00:02:25.207Z,8.24
2023-03-05T00:03:28.558Z,8.21
2023-03-05T00:04:30.865Z,8.24
2023-03-05T00:05:34.940Z,8.24
2023-03-05T00:06:37.393Z,8.16
2023-03-05T00:07:40.803Z,8.15
2023-03-05T00:08:43.457Z,8.13
2023-03-05T00:09:46.852Z,8.26
2023-03-05T00:10:57.399Z,8.32
2023-03-05T00:12:00.776Z,8.19
2023-03-05T00:13:03.242Z,8.18
2023-03-05T00:14:07.008Z,8.09
2023-03-05T00:15:11.007Z,8.22
2023-03-05T00:16:15.911Z,8.08
2023-03-05T00:17:18.369Z,8.11
2023-03-05T00:18:22.143Z,8.10
2023-03-05T00:19:24.323Z,8.30
2023-03-05T00:20:28.328Z,8.22
2023-03-05T00:21:33.107Z,8.28
2023-03-05T00:22:37.053Z,8.27
2023-03-05T00:23:39.259Z,8.10
2023-03-05T00:24:42.791Z,8.06
2023-03-05T00:25:46.722Z,8.11
2023-03-05T00:26:52.174Z,8.17
2023-03-05T00:27:54.545Z,8.17
2023-03-05T00:28:59.286Z,8.09
2023-03-05T00:30:01.590Z,8.35
2023-03-05T00:31:06.033Z,8.44
2023-03-05T00:32:08.611Z,8.40
2023-03-05T00:33:14.493Z,8.36
2023-03-05T00:34:19.160Z,8.30
2023-03-05T00:35:23.050Z,8.28
2023-03-05T00:36:28.811Z,8.10
2023-03-05T00:37:32.186Z,8.00
2023-03-05T00:38:34.961Z,8.01
2023-03-05T00:39:38.680Z,8.09
2023-03-05T00:40:42.369Z,7.86
2023-03-05T00:41:48.336Z,7.83
2023-03-05T00:42:52.796Z,7.88
2023-03-05T00:43:57.220Z,7.77
2023-03-05T00:44:59.995Z,7.93
2023-03-05T00:46:03.620Z,7.86
2023-03-05T00:47:06.422Z,8.04
2023-03-05T00:48:10.834Z,8.12
2023-03-05T00:49:13.542Z,8.31
2023-03-05T00:50:17.288Z,8.23
2023-03-05T00:51:21.440Z,8.07
2023-03-05T00:52:24.898Z,8.14
2023-03-05T00:53:30.774Z,8.08
2023-03-05T00:54:35.508Z,7.85
2023-03-05T00:55:37.876Z,7.86
2023-03-05T00:56:41.647Z,7.79
2023-03-05T00:57:43.910Z,7.82
2023-03-05T00:58:49.125Z,7.80
2023-03-05T00:59:51.760Z,7.86
2023-03-05T01:01:00.247Z,7.79
2023-03-05T01:02:03.826Z,7.88
2023-03-05T01:03:11.217Z,7.80
2023-03-05T01:04:14.560Z,7.87
2023-03-05T01:05:17.024Z,7.76
2023-03-05T01:06:22.384Z,7.68
2023-03-05T01:07:24.855Z,7.67
2023-03-05T01:08:28.891Z,7.62
2023-03-05T01:09:31.444Z,7.57
2023-03-05T01:10:35.183Z,7.78
2023-03-05T01:11:37.758Z,7.89
2023-03-05T01:12:41.666Z,7.93
2023-03-05T01:13:43.979Z,8.04
2023-03-05T01:14:48.842Z,7.92
2023-03-05T01:15:51.777Z,8.02
2023-03-05T01:16:55.241Z,7.89
2023-03-05T01:17:57.736Z,7.80
2023-03-05T01:19:01.105Z,7.97
2023-03-05T01:20:03.797Z,7.94
2023-03-05T01:21:07.532Z,7.94
2023-03-05T01:22:09.891Z,7.94
2023-03-05T01:23:13.265Z,8.08
2023-03-05T01:24:16.825Z,8.05
2023-03-05T01:25:19.316Z,8.01
2023-03-05T01:26:22.660Z,7.92
2023-03-05T01:27:25.840Z,7.78
2023-03-05T01:28:29.834Z,7.86
2023-03-05T01:29:32.086Z,7.72
2023-03-05T01:30:37.097Z,7.69
2023-03-05T01:31:39.717Z,7.65
2023-03-05T01:32:43.486Z,7.76
2023-03-05T01:33:45.916Z,7.91
2023-03-05T01:34:49.250Z,7.82
2023-03-05T01:35:51.706Z,7.91
2023-03-05T01:36:54.993Z,7.88
2023-03-05T01:37:57.639Z,7.71
2023-03-05T01:39:01.457Z,7.69
2023-03-05T01:40:04.176Z,7.79
2023-03-05T01:41:07.729Z,7.85
2023-03-05T01:42:10.323Z,7.83
2023-03-05T01:43:26.514Z,7.75
2023-03-05T01:44:30.426Z,7.88
2023-03-05T01:45:34.081Z,7.61
2023-03-05T01:46:38.932Z,7.68
2023-03-05T01:47:42.194Z,7.78
2023-03-05T01:48:47.910Z,7.66
2023-03-05T01:49:51.672Z,7.57
2023-03-05T01:50:54.043Z,7.70
2023-03-05T01:52:03.959Z,7.66
2023-03-05T01:53:07.731Z,7.73
2023-03-05T01:54:13.048Z,7.84
2023-03-05T01:55:19.439Z,7.80
2023-03-05T01:56:22.307Z,7.59
2023-03-05T01:57:29.741Z,7.54
2023-03-05T01:58:32.713Z,7.55
2023-03-05T01:59:37.952Z,7.44
2023-03-05T02:00:44.359Z,7.47
2023-03-05T02:01:52.060Z,7.54
2023-03-05T02:02:57.259Z,7.59
2023-03-05T02:04:01.852Z,7.39
2023-03-05T02:05:10.858Z,7.56
2023-03-05T02:06:17.861Z,7.69
2023-03-05T02:07:24.859Z,7.80
2023-03-05T02:08:28.658Z,7.71
2023-03-05T02:09:33.996Z,7.62
2023-03-05T02:10:40.981Z,7.54
2023-03-05T02:11:45.342Z,7.43
2023-03-05T02:12:49.658Z,7.59
2023-03-05T02:13:53.250Z,7.55
2023-03-05T02:14:59.439Z,7.44
2023-03-05T02:16:03.972Z,7.57
2023-03-05T02:17:08.845Z,7.67
2023-03-05T02:18:12.628Z,7.64
2023-03-05T02:19:15.071Z,7.71
2023-03-05T02:20:21.828Z,7.76
2023-03-05T02:21:30.063Z,7.64
2023-03-05T02:22:34.000Z,7.71
2023-03-05T02:23:37.855Z,7.60
2023-03-05T02:24:41.464Z,7.58
2023-03-05T02:25:44.280Z,7.54
2023-03-05T02:26:48.879Z,7.51
2023-03-05T02:27:55.917Z,7.57
2023-03-05T02:29:02.375Z,7.54
2023-03-05T02:30:05.709Z,7.57
2023-03-05T02:31:14.405Z,7.43
2023-03-05T02:32:16.787Z,7.35
2023-03-05T02:33:22.353Z,7.37
2023-03-05T02:34:25.087Z,7.35
2023-03-05T02:35:28.634Z,7.34
2023-03-05T02:36:32.631Z,7.40
2023-03-05T02:37:36.064Z,7.23
2023-03-05T02:38:38.784Z,7.31
2023-03-05T02:39:42.459Z,7.23
2023-03-05T02:40:44.813Z,7.38
2023-03-05T02:41:48.489Z,7.37
2023-03-05T02:42:52.122Z,7.34
2023-03-05T02:43:55.653Z,7.44
2023-03-05T02:44:57.952Z,7.34
2023-03-05T02:46:01.648Z,7.31
2023-03-05T02:47:06.984Z,7.33
2023-03-05T02:48:10.653Z,7.10
2023-03-05T02:49:13.522Z,6.99
2023-03-05T02:50:16.886Z,7.17
2023-03-05T02:51:19.898Z,7.05
2023-03-05T02:52:25.618Z,6.99
2023-03-05T02:53:27.924Z,7.06
2023-03-05T02:54:31.373Z,7.27
2023-03-05T02:55:33.791Z,7.21
2023-03-05T02:56:38.342Z,7.11
2023-03-05T02:57:40.799Z,7.06
2023-03-05T02:58:44.438Z,7.14
2023-03-05T02:59:46.992Z,7.15
2023-03-05T03:00:50.701Z,7.23
2023-03-05T03:01:53.457Z,7.02
2023-03-05T03:02:56.825Z,7.02
2023-03-05T03:03:59.477Z,7.09
2023-03-05T03:05:02.912Z,7.06
2023-03-05T03:06:06.794Z,7.15
2023-03-05T03:07:10.560Z,7.25
2023-03-05T03:08:19.584Z,7.20
2023-03-05T03:09:22.884Z,7.15
2023-03-05T03:10:25.859Z,7.11
2023-03-05T03:11:29.147Z,6.99
2023-03-05T03:12:31.611Z,7.11
2023-03-05T03:13:35.144Z,7.31
2023-03-05T03:14:39.578Z,7.21
2023-03-05T03:15:42.933Z,7.15
2023-03-05T03:16:45.409Z,7.28
2023-03-05T03:17:48.696Z,7.38
2023-03-05T03:18:51.117Z,7.14
2023-03-05T03:19:54.395Z,7.06
2023-03-05T03:20:56.931Z,7.14
2023-03-05T03:22:00.511Z,7.16
2023-03-05T03:23:02.902Z,7.11
2023-03-05T03:24:08.357Z,7.04
2023-03-05T03:25:14.109Z,6.91
2023-03-05T03:26:17.877Z,7.05
2023-03-05T03:27:20.172Z,6.99
2023-03-05T03:28:23.644Z,7.25
2023-03-05T03:29:26.008Z,7.15
2023-03-05T03:30:29.259Z,7.29
2023-03-05T03:31:31.494Z,7.06
2023-03-05T03:32:35.304Z,6.98
2023-03-05T03:33:37.600Z,7.16
2023-03-05T03:34:41.182Z,6.96
2023-03-05T03:35:43.510Z,7.09
2023-03-05T03:36:48.692Z,7.16
2023-03-05T03:37:51.208Z,7.24
2023-03-05T03:38:54.447Z,7.26
2023-03-05T03:39:58.264Z,7.24
2023-03-05T03:41:01.662Z,7.13
2023-03-05T03:42:04.200Z,7.06
2023-03-05T03:43:07.782Z,7.20
2023-03-05T03:44:11.229Z,7.07
2023-03-05T03:45:14.189Z,7.10
2023-03-05T03:46:17.583Z,6.99
2023-03-05T03:47:19.817Z,7.00
2023-03-05T03:48:23.279Z,6.94
2023-03-05T03:49:27.096Z,6.94
2023-03-05T03:50:30.614Z,6.94
2023-03-05T03:51:33.489Z,6.87
2023-03-05T03:52:36.951Z,6.77
2023-03-05T03:53:39.349Z,6.72
2023-03-05T03:54:42.945Z,6.71
2023-03-05T03:55:47.223Z,6.73
2023-03-05T03:56:50.576Z,6.68
2023-03-05T03:57:52.863Z,6.78
2023-03-05T03:58:56.275Z,6.81
2023-03-05T03:59:58.659Z,6.68
2023-03-05T04:01:02.623Z,6.74
2023-03-05T04:02:04.996Z,6.61
2023-03-05T04:03:09.304Z,6.77
2023-03-05T04:04:13.816Z,6.88
2023-03-05T04:05:17.482Z,6.83
2023-03-05T04:06:19.733Z,6.90
2023-03-05T04:07:23.896Z,7.02
2023-03-05T04:08:26.211Z,7.04
2023-03-05T04:09:29.674Z,6.91
2023-03-05T04:10:32.163Z,6.76
2023-03-05T04:11:37.923Z,6.78
2023-03-05T04:12:43.137Z,6.85
2023-03-05T04:13:47.293Z,6.95
2023-03-05T04:14:50.267Z,6.87
2023-03-05T04:15:53.746Z,6.96
2023-03-05T04:16:56.223Z,6.89
2023-03-05T04:17:59.555Z,6.93
2023-03-05T04:19:01.857Z,6.98
2023-03-05T04:20:07.109Z,6.95
2023-03-05T04:21:10.059Z,6.85
2023-03-05T04:22:14.149Z,6.92
2023-03-05T04:23:17.006Z,7.00
2023-03-05T04:24:20.315Z,6.77
2023-03-05T04:25:22.679Z,6.93
2023-03-05T04:26:26.011Z,6.87
2023-03-05T04:27:29.620Z,6.83
2023-03-05T04:28:33.362Z,6.85
2023-03-05T04:29:36.066Z,6.70
2023-03-05T04:30:39.439Z,6.64
2023-03-05T04:31:41.675Z,6.70
2023-03-05T04:32:45.020Z,6.76
2023-03-05T04:33:47.268Z,6.86
2023-03-05T04:34:50.996Z,6.82
2023-03-05T04:35:53.417Z,6.71
2023-03-05T04:36:56.758Z,6.69
2023-03-05T04:38:00.417Z,6.74
2023-03-05T04:39:02.724Z,6.62
2023-03-05T04:40:07.024Z,6.61
2023-03-05T04:41:09.571Z,6.69
2023-03-05T04:42:12.915Z,6.69
2023-03-05T04:43:16.712Z,6.65
2023-03-05T04:44:20.353Z,6.64
2023-03-05T04:45:22.623Z,6.57
2023-03-05T04:46:26.039Z,6.62
2023-03-05T04:47:28.320Z,6.63
2023-03-05T04:48:31.600Z,6.52
2023-03-05T04:49:33.922Z,6.71
2023-03-05T04:50:37.378Z,6.58
2023-03-05T04:51:39.704Z,6.54
2023-03-05T04:52:44.597Z,6.55
2023-03-05T04:53:47.227Z,6.50
2023-03-05T04:54:50.518Z,6.54
2023-03-05T04:55:53.967Z,6.61
2023-03-05T04:56:57.230Z,6.72
2023-03-05T04:57:59.473Z,6.85
2023-03-05T04:59:04.177Z,6.88
2023-03-05T05:00:14.303Z,6.88
2023-03-05T05:01:17.856Z,6.98
2023-03-05T05:02:20.222Z,6.92
2023-03-05T05:03:23.502Z,6.81
2023-03-05T05:04:25.794Z,6.92
2023-03-05T05:05:30.150Z,6.93
2023-03-05T05:06:32.500Z,6.75
2023-03-05T05:07:36.069Z,6.79
2023-03-05T05:08:38.714Z,6.58
2023-03-05T05:09:42.493Z,6.77
2023-03-05T05:10:44.739Z,6.75
2023-03-05T05:11:48.283Z,6.75
2023-03-05T05:12:50.719Z,6.83
2023-03-05T05:13:54.602Z,6.79
2023-03-05T05:14:59.664Z,6.81
2023-03-05T05:16:03.135Z,6.68
2023-03-05T05:17:05.703Z,6.78
2023-03-05T05:18:09.102Z,6.69
2023-03-05T05:19:11.597Z,6.61
2023-03-05T05:20:17.110Z,6.65
2023-03-05T05:21:20.520Z,6.72
2023-03-05T05:22:24.730Z,6.74
2023-03-05T05:23:27.188Z,6.59
2023-03-05T05:24:30.574Z,6.74
2023-03-05T05:25:33.004Z,6.75
2023-03-05T05:26:36.489Z,6.60
2023-03-05T05:27:39.857Z,6.56
2023-03-05T05:28:44.796Z,6.62
2023-03-05T05:29:50.411Z,6.60
2023-03-05T05:30:55.992Z,6.63
2023-03-05T05:31:58.212Z,6.85
2023-03-05T05:33:01.579Z,7.02
2023-03-05T05:34:03.917Z,6.83
2023-03-05T05:35:08.318Z,6.70
2023-03-05T05:36:13.847Z,6.80
2023-03-05T05:37:17.115Z,6.72
2023-03-05T05:38:19.743Z,6.81
2023-03-05T05:39:23.128Z,6.80
2023-03-05T05:40:25.448Z,6.80
2023-03-05T05:41:28.755Z,6.58
2023-03-05T05:42:31.165Z,6.45
2023-03-05T05:43:34.562Z,6.57
2023-03-05T05:44:36.845Z,6.66
2023-03-05T05:45:40.483Z,6.65
2023-03-05T05:46:44.497Z,6.56
2023-03-05T05:47:47.868Z,6.70
2023-03-05T05:48:50.186Z,6.54
2023-03-05T05:49:53.645Z,6.55
2023-03-05T05:50:56.007Z,6.63
2023-03-05T05:51:59.495Z,6.50
2023-03-05T05:53:01.817Z,6.32
2023-03-05T05:54:05.437Z,6.33
2023-03-05T05:55:08.714Z,6.35
2023-03-05T05:56:13.586Z,6.39
2023-03-05T05:57:16.010Z,6.43
2023-03-05T05:58:19.779Z,6.40
2023-03-05T05:59:22.035Z,6.53
2023-03-05T06:00:25.672Z,6.50
2023-03-05T06:01:29.943Z,6.61
2023-03-05T06:02:34.832Z,6.77
2023-03-05T06:03:37.095Z,6.81
2023-03-05T06:04:40.463Z,6.70
2023-03-05T06:05:43.386Z,6.76
2023-03-05T06:06:46.726Z,6.66
2023-03-05T06:07:49.237Z,6.85
2023-03-05T06:08:53.189Z,6.73
2023-03-05T06:09:55.534Z,6.78
2023-03-05T06:10:58.996Z,6.86
2023-03-05T06:12:02.222Z,6.97
2023-03-05T06:13:04.529Z,7.00
2023-03-05T06:14:08.959Z,6.94
2023-03-05T06:15:11.413Z,6.86
2023-03-05T06:16:17.237Z,6.86
2023-03-05T06:17:29.956Z,6.98
2023-03-05T06:18:36.980Z,7.08
2023-03-05T06:19:39.217Z,6.91
2023-03-05T06:20:42.707Z,7.00
2023-03-05T06:21:45.354Z,7.03
2023-03-05T06:22:48.657Z,7.05
2023-03-05T06:23:52.174Z,7.14
2023-03-05T06:24:55.518Z,6.95
2023-03-05T06:26:00.572Z,6.81
2023-03-05T06:27:04.858Z,6.70
2023-03-05T06:28:07.330Z,6.80
2023-03-05T06:29:10.910Z,6.72
2023-03-05T06:30:13.830Z,6.72
2023-03-05T06:31:22.002Z,6.80
2023-03-05T06:32:24.367Z,6.87
2023-03-05T06:33:27.867Z,6.82
2023-03-05T06:34:31.620Z,6.77
2023-03-05T06:35:35.349Z,6.74
2023-03-05T06:36:40.562Z,6.90
2023-03-05T06:37:42.871Z,6.96
2023-03-05T06:38:48.454Z,6.90
2023-03-05T06:39:51.248Z,6.80
2023-03-05T06:40:54.595Z,6.79
2023-03-05T06:41:58.394Z,6.83
2023-03-05T06:43:00.923Z,6.85
2023-03-05T06:44:04.877Z,6.91
2023-03-05T06:45:08.636Z,6.86
2023-03-05T06:46:14.604Z,6.86
2023-03-05T06:47:17.076Z,7.10
2023-03-05T06:48:20.668Z,6.93
2023-03-05T06:49:23.497Z,7.07
2023-03-05T06:50:28.313Z,7.12
2023-03-05T06:51:32.643Z,7.20
2023-03-05T06:52:36.261Z,7.23
2023-03-05T06:53:38.653Z,7.23
2023-03-05T06:54:42.211Z,7.15
2023-03-05T06:55:44.450Z,7.33
2023-03-05T06:56:48.412Z,7.41
2023-03-05T06:57:50.992Z,7.28
2023-03-05T06:58:54.434Z,7.39
2023-03-05T06:59:56.719Z,7.53
2023-03-05T07:01:00.436Z,7.39
2023-03-05T07:02:02.772Z,7.36
2023-03-05T07:03:06.104Z,7.40
2023-03-05T07:04:08.693Z,7.43
2023-03-05T07:05:12.559Z,7.15
2023-03-05T07:06:16.636Z,7.34
2023-03-05T07:07:20.324Z,7.49
2023-03-05T07:08:22.687Z,7.34
2023-03-05T07:09:25.935Z,7.27
2023-03-05T07:10:28.104Z,7.35
2023-03-05T07:11:31.842Z,7.44
2023-03-05T07:12:34.345Z,7.39
2023-03-05T07:13:37.665Z,7.50
2023-03-05T07:14:39.896Z,7.53
2023-03-05T07:15:43.343Z,7.51
2023-03-05T07:16:45.678Z,7.55
2023-03-05T07:17:49.248Z,7.60
2023-03-05T07:18:52.014Z,7.75
2023-03-05T07:19:55.305Z,7.86
2023-03-05T07:21:02.462Z,7.78
2023-03-05T07:22:07.960Z,8.03
2023-03-05T07:23:10.350Z,8.01
2023-03-05T07:24:13.972Z,8.20
2023-03-05T07:25:21.544Z,8.28
2023-03-05T07:26:25.823Z,8.20
2023-03-05T07:27:28.322Z,8.22
2023-03-05T07:28:31.814Z,8.18
2023-03-05T07:29:34.149Z,8.33
2023-03-05T07:30:37.514Z,8.33
2023-03-05T07:31:39.840Z,8.25
2023-03-05T07:32:43.148Z,8.34
2023-03-05T07:33:45.675Z,8.38
2023-03-05T07:34:49.056Z,8.30
2023-03-05T07:35:51.442Z,8.42
2023-03-05T07:36:54.752Z,8.49
2023-03-05T07:37:58.501Z,8.52
2023-03-05T07:39:01.789Z,8.60
2023-03-05T07:40:04.849Z,8.82
2023-03-05T07:41:09.950Z,8.92
2023-03-05T07:42:13.236Z,8.92
2023-03-05T07:43:16.714Z,9.17
2023-03-05T07:44:20.355Z,9.30
2023-03-05T07:45:23.678Z,9.51
2023-03-05T07:46:29.049Z,9.96
2023-03-05T07:47:32.453Z,10.34
2023-03-05T07:48:34.984Z,10.37
2023-03-05T07:49:39.939Z,10.58
2023-03-05T07:50:43.231Z,11.11
2023-03-05T07:51:46.778Z,11.37
2023-03-05T07:52:50.037Z,11.98
2023-03-05T07:53:55.983Z,12.45
2023-03-05T07:54:59.412Z,12.85
2023-03-05T07:56:01.820Z,13.07
2023-03-05T07:57:05.456Z,12.49
2023-03-05T07:58:08.931Z,12.55
2023-03-05T07:59:14.576Z,12.90
2023-03-05T08:00:17.694Z,13.29
2023-03-05T08:01:20.923Z,13.79
2023-03-05T08:02:23.275Z,14.38
2023-03-05T08:03:26.764Z,14.86
2023-03-05T08:04:32.156Z,15.41
2023-03-05T08:05:34.722Z,15.68
2023-03-05T08:06:41.233Z,15.90
2023-03-05T08:07:43.693Z,16.44
2023-03-05T08:08:47.026Z,16.69
2023-03-05T08:09:50.818Z,16.80
2023-03-05T08:10:54.155Z,16.65
2023-03-05T08:11:57.706Z,16.65
2023-03-05T08:13:00.068Z,16.55
2023-03-05T08:14:04.637Z,16.38
2023-03-05T08:15:09.286Z,16.99
2023-03-05T08:16:15.251Z,17.33
2023-03-05T08:17:18.604Z,17.48
2023-03-05T08:18:20.995Z,17.31
2023-03-05T08:19:24.415Z,17.13
2023-03-05T08:20:27.007Z,17.19
2023-03-05T08:21:33.809Z,17.47
2023-03-05T08:22:36.110Z,18.04
2023-03-05T08:23:39.557Z,17.44
2023-03-05T08:24:42.999Z,16.90
2023-03-05T08:25:47.696Z,16.46
2023-03-05T08:26:50.994Z,16.61
2023-03-05T08:27:53.215Z,15.98
2023-03-05T08:28:56.970Z,15.65
2023-03-05T08:30:00.936Z,15.54
2023-03-05T08:31:09.475Z,15.27
2023-03-05T08:32:12.593Z,15.40
2023-03-05T08:33:17.724Z,15.58
2023-03-05T08:34:21.406Z,15.80
2023-03-05T08:35:24.223Z,16.18
2023-03-05T08:36:27.654Z,16.01
2023-03-05T08:37:29.967Z,15.84
2023-03-05T08:38:33.360Z,15.79
2023-03-05T08:39:35.706Z,15.79
2023-03-05T08:40:39.094Z,15.23
2023-03-05T08:41:42.931Z,15.37
2023-03-05T08:42:46.681Z,15.24
2023-03-05T08:43:49.306Z,15.47
2023-03-05T08:44:52.687Z,15.48
2023-03-05T08:45:55.035Z,15.05
2023-03-05T08:46:58.491Z,14.80
2023-03-05T08:48:00.837Z,14.97
2023-03-05T08:49:04.441Z,15.22
2023-03-05T08:50:07.827Z,14.87
2023-03-05T08:51:13.887Z,14.85
2023-03-05T08:52:17.131Z,14.70
2023-03-05T08:53:19.387Z,14.92
2023-03-05T08:54:22.842Z,14.77
2023-03-05T08:55:25.165Z,14.74
2023-03-05T08:56:31.265Z,14.69
2023-03-05T08:57:35.945Z,14.63
2023-03-05T08:58:38.398Z,14.62
2023-03-05T08:59:41.624Z,14.41
2023-03-05T09:00:43.997Z,14.31
2023-03-05T09:01:47.428Z,14.57
2023-03-05T09:02:49.870Z,14.71
2023-03-05T09:03:53.446Z,14.71
2023-03-05T09:04:56.134Z,14.85
2023-03-05T09:06:02.038Z,15.05
2023-03-05T09:07:04.428Z,15.11
2023-03-05T09:08:07.682Z,15.14
2023-03-05T09:09:11.009Z,15.04
2023-03-05T09:10:14.819Z,14.63
2023-03-05T09:11:18.357Z,14.73
2023-03-05T09:12:20.556Z,14.58
2023-03-05T09:13:25.340Z,14.63
2023-03-05T09:14:28.480Z,14.58
2023-03-05T09:15:32.342Z,14.42
2023-03-05T09:16:36.372Z,14.12
2023-03-05T09:17:41.814Z,14.36
2023-03-05T09:18:45.436Z,14.26
2023-03-05T09:19:47.735Z,14.53
2023-03-05T09:20:51.245Z,14.33
2023-03-05T09:21:55.965Z,14.04
2023-03-05T09:23:00.217Z,14.71
2023-03-05T09:24:03.551Z,14.11
2023-03-05T09:25:08.006Z,14.67
2023-03-05T09:26:13.249Z,14.90
2023-03-05T09:27:16.592Z,14.70
2023-03-05T09:28:19.080Z,14.72
2023-03-05T09:29:23.911Z,14.60
2023-03-05T09:30:26.285Z,14.45
2023-03-05T09:31:29.780Z,14.22
2023-03-05T09:32:32.404Z,13.92
2023-03-05T09:33:36.296Z,14.08
2023-03-05T09:34:39.609Z,13.79
2023-03-05T09:35:43.384Z,13.92
2023-03-05T09:36:46.846Z,14.13
2023-03-05T09:37:49.329Z,14.28
2023-03-05T09:38:53.481Z,14.16
2023-03-05T09:39:55.841Z,14.17
2023-03-05T09:41:03.714Z,14.33
2023-03-05T09:42:38.910Z,14.49
2023-03-05T09:43:50.566Z,14.11
2023-03-05T09:45:02.745Z,14.42
2023-03-05T09:46:16.873Z,14.83
2023-03-05T09:47:38.360Z,14.90
2023-03-05T09:48:50.979Z,14.78
2023-03-05T09:50:03.762Z,15.09
2023-03-05T09:51:12.695Z,14.61
2023-03-05T09:52:21.066Z,14.58
2023-03-05T09:53:32.158Z,14.76
2023-03-05T09:54:40.197Z,14.67
2023-03-05T09:55:45.549Z,15.11
2023-03-05T09:56:51.605Z,15.16
2023-03-05T09:57:59.632Z,15.55
2023-03-05T09:59:16.320Z,15.08
2023-03-05T10:00:34.719Z,15.04
2023-03-05T10:01:42.304Z,14.51
2023-03-05T10:02:50.728Z,14.86
2023-03-05T10:03:58.526Z,14.39
2023-03-05T10:05:04.610Z,14.62
2023-03-05T10:06:14.997Z,14.77
2023-03-05T10:07:21.656Z,15.34
2023-03-05T10:08:33.037Z,15.44
2023-03-05T10:09:46.747Z,15.45
2023-03-05T10:10:53.521Z,16.00
2023-03-05T10:12:00.376Z,16.50
2023-03-05T10:13:13.501Z,16.27
2023-03-05T10:14:21.544Z,15.36
2023-03-05T10:15:35.802Z,15.74
2023-03-05T10:17:17.225Z,16.08
2023-03-05T10:18:26.341Z,16.00
2023-03-05T10:19:55.135Z,15.84
2023-03-05T10:21:01.147Z,15.81
2023-03-05T10:22:16.258Z,15.99
2023-03-05T10:23:31.824Z,15.76
2023-03-05T10:24:50.040Z,16.35
2023-03-05T10:26:00.146Z,16.38
2023-03-05T10:27:09.432Z,15.94
2023-03-05T10:28:18.090Z,16.31
2023-03-05T10:29:45.843Z,16.02
2023-03-05T10:31:04.692Z,16.17
2023-03-05T10:32:23.704Z,16.19
2023-03-05T10:33:36.251Z,15.91
2023-03-05T10:34:59.929Z,16.17
2023-03-05T10:36:31.391Z,16.44
2023-03-05T10:37:55.537Z,16.60
2023-03-05T10:39:29.862Z,16.34
2023-03-05T10:40:42.023Z,16.48
2023-03-05T10:41:56.088Z,16.75
2023-03-05T10:43:06.510Z,16.75
2023-03-05T10:44:16.712Z,16.81
2023-03-05T10:45:24.288Z,16.40
2023-03-05T10:46:32.775Z,16.11
2023-03-05T10:47:45.256Z,15.94
2023-03-05T10:48:52.480Z,15.57
2023-03-05T10:49:56.750Z,15.90
2023-03-05T10:51:05.745Z,16.16
2023-03-05T10:52:18.179Z,15.92
2023-03-05T10:53:26.991Z,15.89
2023-03-05T10:54:31.814Z,15.95
2023-03-05T10:55:35.161Z,15.68
2023-03-05T10:56:37.680Z,15.48
2023-03-05T10:57:40.941Z,15.59
2023-03-05T10:58:43.354Z,15.53
2023-03-05T10:59:51.022Z,15.46
2023-03-05T11:01:02.351Z,15.56
2023-03-05T11:02:09.783Z,15.39
2023-03-05T11:03:12.236Z,15.30
2023-03-05T11:04:29.008Z,15.32
2023-03-05T11:05:41.557Z,15.55
2023-03-05T11:06:46.922Z,15.74
2023-03-05T11:07:49.242Z,15.33
2023-03-05T11:08:52.677Z,15.54
2023-03-05T11:10:05.981Z,15.43
2023-03-05T11:11:16.899Z,15.39
2023-03-05T11:12:21.358Z,15.68
2023-03-05T11:13:28.859Z,15.86
2023-03-05T11:14:33.576Z,16.06
2023-03-05T11:15:36.920Z,15.91
2023-03-05T11:16:48.373Z,15.59
2023-03-05T11:18:07.415Z,15.51
2023-03-05T11:19:22.494Z,15.36
2023-03-05T11:20:33.079Z,15.56
2023-03-05T11:21:36.387Z,15.52
2023-03-05T11:22:38.826Z,15.16
2023-03-05T11:23:42.116Z,14.86
2023-03-05T11:24:46.802Z,14.77
2023-03-05T11:25:59.341Z,15.10
2023-03-05T11:27:03.054Z,15.26
2023-03-05T11:28:05.320Z,14.98
2023-03-05T11:29:20.089Z,14.94
2023-03-05T11:30:27.361Z,14.96
2023-03-05T11:31:33.510Z,15.24
2023-03-05T11:32:35.871Z,15.25
2023-03-05T11:33:40.656Z,15.61
2023-03-05T11:34:43.077Z,15.24
2023-03-05T11:35:46.783Z,15.16
2023-03-05T11:37:04.700Z,15.49
2023-03-05T11:38:16.232Z,15.54
2023-03-05T11:39:22.635Z,15.22
2023-03-05T11:40:28.076Z,15.30
2023-03-05T11:41:37.009Z,15.20
2023-03-05T11:42:41.262Z,15.52
2023-03-05T11:43:45.215Z,15.46
2023-03-05T11:44:50.285Z,15.11
2023-03-05T11:45:56.109Z,15.13
2023-03-05T11:47:05.444Z,15.08
2023-03-05T11:48:14.266Z,15.14
2023-03-05T11:49:22.700Z,14.96
2023-03-05T11:50:27.071Z,14.94
2023-03-05T11:51:42.500Z,15.18
2023-03-05T11:52:48.341Z,15.02
2023-03-05T11:53:55.763Z,14.68
2023-03-05T11:55:06.190Z,14.65
2023-03-05T11:56:19.105Z,14.70
2023-03-05T11:57:25.262Z,14.75
2023-03-05T11:58:32.644Z,15.10
2023-03-05T11:59:39.731Z,15.45
2023-03-05T12:00:44.081Z,15.63
2023-03-05T12:01:50.839Z,15.27
2023-03-05T12:02:57.022Z,14.97
2023-03-05T12:04:01.524Z,15.36
2023-03-05T12:05:06.538Z,15.22
2023-03-05T12:06:16.607Z,15.28
2023-03-05T12:07:23.185Z,14.97
2023-03-05T12:08:31.063Z,14.71
2023-03-05T12:09:41.057Z,14.78
2023-03-05T12:10:44.589Z,14.85
2023-03-05T12:11:53.068Z,15.05
2023-03-05T12:13:00.439Z,15.19
2023-03-05T12:14:09.353Z,15.29
2023-03-05T12:15:35.029Z,15.18
2023-03-05T12:16:42.633Z,15.16
2023-03-05T12:17:48.714Z,15.33
2023-03-05T12:19:02.138Z,15.28
2023-03-05T12:20:14.019Z,15.19
2023-03-05T12:21:27.186Z,15.35
2023-03-05T12:22:35.947Z,15.55
2023-03-05T12:23:53.969Z,15.36
2023-03-05T12:25:25.896Z,15.11
2023-03-05T12:27:06.688Z,14.61
2023-03-05T12:28:16.293Z,14.61
2023-03-05T12:29:29.959Z,14.58
2023-03-05T12:30:57.844Z,15.06
2023-03-05T12:32:02.408Z,14.99
2023-03-05T12:33:06.061Z,15.08
2023-03-05T12:34:49.439Z,14.94
2023-03-05T12:35:54.265Z,14.84
2023-03-05T12:36:56.685Z,15.04
2023-03-05T12:38:27.252Z,15.37
2023-03-05T12:39:49.750Z,15.10
2023-03-05T12:40:53.048Z,15.20
2023-03-05T12:41:56.707Z,14.99
2023-03-05T12:43:02.901Z,15.06
2023-03-05T12:44:19.460Z,15.71
2023-03-05T12:45:34.885Z,15.57
2023-03-05T12:46:38.115Z,15.23
2023-03-05T12:47:42.263Z,15.32
2023-03-05T12:48:44.868Z,15.36
2023-03-05T12:49:49.847Z,15.02
2023-03-05T12:50:59.016Z,15.19
2023-03-05T12:52:05.246Z,15.35
2023-03-05T12:53:14.641Z,15.53
2023-03-05T12:54:28.977Z,15.26
2023-03-05T12:55:34.765Z,15.27
2023-03-05T12:56:45.576Z,15.15
2023-03-05T12:57:53.816Z,14.97
2023-03-05T12:58:58.989Z,14.67
2023-03-05T13:00:08.771Z,14.90
2023-03-05T13:01:25.007Z,15.27
2023-03-05T13:02:33.578Z,15.02
2023-03-05T13:03:39.213Z,15.04
2023-03-05T13:04:47.289Z,14.90
2023-03-05T13:05:53.850Z,14.87
2023-03-05T13:07:04.427Z,15.11
2023-03-05T13:08:14.198Z,15.05
2023-03-05T13:09:24.612Z,15.27
2023-03-05T13:10:30.682Z,15.08
2023-03-05T13:11:37.805Z,15.09
2023-03-05T13:12:41.425Z,15.27
2023-03-05T13:13:46.520Z,15.37
2023-03-05T13:14:58.759Z,15.37
2023-03-05T13:16:03.624Z,15.38
2023-03-05T13:17:35.565Z,15.43
2023-03-05T13:18:47.054Z,15.42
2023-03-05T13:19:49.452Z,15.20
2023-03-05T13:21:04.621Z,14.95
2023-03-05T13:22:12.123Z,15.17
2023-03-05T13:23:19.949Z,14.79
2023-03-05T13:24:23.818Z,15.20
2023-03-05T13:25:26.113Z,15.34
2023-03-05T13:26:30.726Z,15.37
2023-03-05T13:27:33.699Z,15.47
2023-03-05T13:28:39.383Z,15.68
2023-03-05T13:29:51.827Z,15.80
2023-03-05T13:30:58.432Z,15.43
2023-03-05T13:32:02.667Z,15.48
2023-03-05T13:33:07.057Z,15.39
2023-03-05T13:34:17.188Z,15.14
2023-03-05T13:35:22.113Z,15.18
2023-03-05T13:36:27.122Z,15.60
2023-03-05T13:37:35.653Z,15.61
2023-03-05T13:38:42.440Z,15.67
2023-03-05T13:39:50.632Z,15.77
2023-03-05T13:41:19.673Z,15.77
2023-03-05T13:42:25.921Z,15.53
2023-03-05T13:43:28.164Z,15.37
2023-03-05T13:44:32.524Z,15.10
2023-03-05T13:45:34.835Z,14.76
2023-03-05T13:46:40.599Z,15.00
2023-03-05T13:47:53.056Z,15.40
2023-03-05T13:48:56.792Z,15.28
2023-03-05T13:50:01.975Z,15.20
2023-03-05T13:51:07.008Z,15.12
2023-03-05T13:52:10.543Z,15.00
2023-03-05T13:53:21.469Z,15.20
2023-03-05T13:54:25.744Z,15.06
2023-03-05T13:55:29.261Z,15.27
2023-03-05T13:56:31.856Z,15.26
2023-03-05T13:57:38.614Z,15.27
2023-03-05T13:58:52.584Z,15.55
2023-03-05T13:59:56.337Z,15.58
2023-03-05T14:01:05.336Z,15.48
2023-03-05T14:02:18.390Z,15.52
2023-03-05T14:03:25.073Z,15.66
2023-03-05T14:04:30.446Z,15.40
2023-03-05T14:05:33.222Z,15.61
2023-03-05T14:06:42.405Z,15.95
2023-03-05T14:07:50.292Z,15.79
2023-03-05T14:09:05.358Z,15.30
2023-03-05T14:10:30.683Z,15.47
2023-03-05T14:11:34.700Z,15.26
2023-03-05T14:12:41.057Z,15.17
2023-03-05T14:13:44.194Z,15.11
2023-03-05T14:14:47.573Z,14.98
2023-03-05T14:16:04.731Z,14.68
2023-03-05T14:17:32.243Z,14.82
2023-03-05T14:18:35.800Z,14.72
2023-03-05T14:19:39.350Z,14.89